Time;durP1;ratioP1;P1;durP2;ratioP2;P2;SDS_P1;SDS_P2;PMS_P1;PMS_P2;Temp;Humidity;BMP_temperature;BMP_pressure;BME280_temperature;BME280_humidity;BME280_pressure;Samples;Min_cycle;Max_cycle;Signal;HPM_P1;HPM_P2
2023/11/19 00:01:27;;;;;;;1.20;0.60;;;9.40;98.70;;;;;;4972605;28;20530;-45
2023/11/19 00:03:56;;;;;;;1.10;0.60;;;9.40;98.80;;;;;;4964509;28;20550;-45
2023/11/19 00:06:24;;;;;;;0.90;0.40;;;9.40;98.90;;;;;;4965315;28;20462;-44
2023/11/19 00:08:52;;;;;;;0.90;0.40;;;9.40;98.80;;;;;;4973049;28;20993;-45
2023/11/19 00:11:21;;;;;;;0.90;0.40;;;9.40;98.80;;;;;;4969242;28;20469;-44
2023/11/19 00:13:50;;;;;;;0.90;0.40;;;9.40;98.50;;;;;;4965601;28;20448;-44
2023/11/19 00:16:18;;;;;;;1.20;0.50;;;9.40;98.70;;;;;;4959776;28;20526;-44
2023/11/19 00:18:47;;;;;;;1.00;0.50;;;9.40;98.50;;;;;;4970678;28;20435;-44
2023/11/19 00:21:15;;;;;;;1.00;0.50;;;9.40;98.80;;;;;;4963919;28;20475;-45
2023/11/19 00:23:43;;;;;;;1.63;0.40;;;9.40;98.80;;;;;;4950010;28;20440;-45
2023/11/19 00:26:12;;;;;;;0.97;0.50;;;9.40;98.80;;;;;;4962206;28;20466;-44
2023/11/19 00:28:43;;;;;;;0.80;0.30;;;9.40;98.90;;;;;;4955429;28;20450;-48
2023/11/19 00:31:12;;;;;;;0.90;0.40;;;9.40;98.70;;;;;;4967828;28;20470;-45
2023/11/19 00:33:40;;;;;;;1.00;0.30;;;9.40;98.50;;;;;;4948034;28;20447;-44
2023/11/19 00:36:12;;;;;;;1.10;0.50;;;9.40;98.50;;;;;;4955368;28;20466;-43
2023/11/19 00:38:40;;;;;;;0.80;0.30;;;9.40;98.60;;;;;;4964964;28;20853;-46
2023/11/19 00:41:08;;;;;;;1.10;0.40;;;9.40;98.50;;;;;;4946084;28;20891;-45
2023/11/19 00:43:36;;;;;;;1.00;0.47;;;9.40;98.50;;;;;;4964932;28;20488;-45
2023/11/19 00:46:05;;;;;;;1.00;0.30;;;9.40;98.80;;;;;;4970540;28;20832;-43
2023/11/19 00:48:34;;;;;;;1.10;0.53;;;9.40;98.60;;;;;;4957836;28;20986;-44
2023/11/19 00:51:03;;;;;;;1.20;0.40;;;9.40;98.50;;;;;;4966680;28;20463;-44
2023/11/19 00:53:33;;;;;;;2.20;0.60;;;9.40;98.50;;;;;;4972561;28;20431;-46
2023/11/19 00:56:01;;;;;;;1.27;0.30;;;9.40;98.50;;;;;;4957579;28;20471;-45
2023/11/19 00:58:30;;;;;;;1.40;0.60;;;9.50;98.70;;;;;;4967189;28;20490;-44
2023/11/19 01:00:59;;;;;;;1.00;0.30;;;9.50;98.50;;;;;;4949022;28;21026;-44
2023/11/19 01:03:27;;;;;;;0.90;0.50;;;9.50;98.60;;;;;;4969828;28;20474;-45
2023/11/19 01:05:59;;;;;;;0.80;0.30;;;9.50;98.50;;;;;;4956861;28;20954;-44
2023/11/19 01:08:27;;;;;;;0.90;0.40;;;9.50;98.50;;;;;;4960044;28;20439;-47
2023/11/19 01:10:55;;;;;;;0.97;0.40;;;9.50;98.50;;;;;;4962486;28;20534;-44
2023/11/19 01:13:24;;;;;;;1.00;0.53;;;9.50;98.60;;;;;;4955033;28;20486;-48
2023/11/19 01:15:52;;;;;;;1.17;0.50;;;9.50;98.70;;;;;;4970217;28;20471;-47
2023/11/19 01:18:20;;;;;;;1.00;0.33;;;9.50;98.50;;;;;;4962733;28;20888;-46
2023/11/19 01:20:48;;;;;;;1.33;0.40;;;9.50;98.50;;;;;;4951353;28;20470;-46
2023/11/19 01:23:19;;;;;;;1.10;0.50;;;9.50;98.70;;;;;;4968857;28;20977;-45
2023/11/19 01:25:48;;;;;;;1.17;0.43;;;9.50;98.60;;;;;;4949513;28;20847;-45
2023/11/19 01:28:16;;;;;;;0.90;0.30;;;9.50;99.00;;;;;;4952694;28;20471;-44
2023/11/19 01:30:44;;;;;;;1.10;0.37;;;9.50;98.80;;;;;;4960071;28;20505;-45
2023/11/19 01:33:12;;;;;;;1.03;0.33;;;9.50;99.10;;;;;;4959498;28;21024;-46
2023/11/19 01:35:41;;;;;;;1.00;0.50;;;9.50;99.30;;;;;;4960259;28;20462;-44
2023/11/19 01:38:09;;;;;;;1.40;0.80;;;9.50;98.60;;;;;;4959821;28;20460;-46
2023/11/19 01:40:38;;;;;;;1.03;0.50;;;9.50;99.00;;;;;;4948476;28;20454;-45
2023/11/19 01:43:07;;;;;;;1.53;0.47;;;9.50;98.90;;;;;;4963352;28;20435;-43
2023/11/19 01:45:35;;;;;;;1.97;0.40;;;9.50;98.90;;;;;;4964071;28;21135;-46
2023/11/19 01:48:04;;;;;;;1.53;0.60;;;9.50;98.70;;;;;;4957512;28;20463;-46
2023/11/19 01:50:34;;;;;;;1.00;0.50;;;9.50;98.80;;;;;;4968371;28;20514;-45
2023/11/19 01:53:02;;;;;;;1.27;0.60;;;9.50;98.80;;;;;;4962488;28;20443;-44
2023/11/19 01:55:30;;;;;;;1.03;0.50;;;9.50;98.80;;;;;;4949140;28;20877;-44
2023/11/19 01:58:02;;;;;;;2.17;0.70;;;9.50;98.80;;;;;;4963272;28;20498;-44
2023/11/19 02:00:33;;;;;;;1.60;0.40;;;9.50;98.70;;;;;;4951454;28;20933;-44
2023/11/19 02:03:03;;;;;;;1.47;0.50;;;9.50;98.90;;;;;;4959504;28;20936;-44
2023/11/19 02:05:32;;;;;;;1.73;0.70;;;9.50;98.70;;;;;;4953701;28;20428;-44
2023/11/19 02:08:00;;;;;;;1.73;0.50;;;9.50;98.90;;;;;;4966494;28;20469;-44
2023/11/19 02:10:28;;;;;;;3.33;0.50;;;9.50;99.00;;;;;;4961232;28;20443;-44
2023/11/19 02:12:56;;;;;;;1.10;0.60;;;9.50;99.10;;;;;;4970347;28;20957;-44
2023/11/19 02:15:35;;;;;;;1.30;0.50;;;9.60;99.00;;;;;;4961711;28;20427;-46
2023/11/19 02:18:22;;;;;;;1.27;0.60;;;9.50;98.90;;;;;;4970071;28;20537;-46
2023/11/19 02:20:51;;;;;;;1.23;0.60;;;9.50;98.80;;;;;;4951371;28;20545;-44
2023/11/19 02:23:21;;;;;;;1.50;0.50;;;9.50;98.80;;;;;;4967140;28;20857;-46
2023/11/19 02:26:01;;;;;;;1.13;0.50;;;9.60;98.90;;;;;;4965195;28;20509;-44
2023/11/19 02:28:30;;;;;;;2.90;0.50;;;9.50;98.80;;;;;;4966119;28;20963;-45
2023/11/19 02:30:58;;;;;;;1.73;0.57;;;9.60;98.70;;;;;;4967225;28;20466;-44
2023/11/19 02:33:26;;;;;;;3.10;0.77;;;9.60;98.60;;;;;;4949938;28;20472;-44
2023/11/19 02:35:54;;;;;;;1.83;0.67;;;9.60;98.80;;;;;;4957001;28;20483;-45
2023/11/19 02:38:22;;;;;;;1.43;0.63;;;9.60;98.80;;;;;;4953284;28;20995;-46
2023/11/19 02:40:50;;;;;;;1.67;0.50;;;9.60;98.60;;;;;;4950383;28;20465;-43
2023/11/19 02:43:19;;;;;;;2.73;0.67;;;9.60;98.80;;;;;;4966211;28;20515;-43
2023/11/19 02:45:48;;;;;;;3.40;0.50;;;9.50;98.90;;;;;;4959796;28;20478;-46
2023/11/19 02:48:16;;;;;;;2.33;0.50;;;9.60;99.00;;;;;;4955813;28;20482;-44
2023/11/19 02:50:45;;;;;;;1.67;0.60;;;9.60;98.80;;;;;;4966451;28;20451;-45
2023/11/19 02:53:13;;;;;;;2.10;0.70;;;9.60;98.80;;;;;;4963797;28;20478;-45
2023/11/19 02:55:48;;;;;;;1.63;0.50;;;9.60;98.60;;;;;;4944241;28;20450;-44
2023/11/19 02:58:23;;;;;;;2.80;0.53;;;9.60;98.60;;;;;;4959421;28;20447;-46
2023/11/19 03:00:57;;;;;;;2.40;0.50;;;9.60;98.80;;;;;;4961145;28;20557;-44
2023/11/19 03:03:30;;;;;;;1.20;0.60;;;9.60;98.80;;;;;;4968718;28;20537;-44
2023/11/19 03:05:58;;;;;;;1.57;0.73;;;9.60;98.80;;;;;;4950159;28;20487;-44
2023/11/19 03:08:27;;;;;;;0.93;0.37;;;9.60;98.80;;;;;;4947617;28;20463;-45
2023/11/19 03:10:55;;;;;;;1.97;0.80;;;9.60;99.00;;;;;;4964188;28;20490;-44
2023/11/19 03:13:23;;;;;;;1.73;0.70;;;9.60;98.90;;;;;;4953085;28;20431;-44
2023/11/19 03:15:53;;;;;;;2.00;0.80;;;9.60;99.00;;;;;;4950521;28;20555;-44
2023/11/19 03:18:22;;;;;;;1.70;0.60;;;9.60;99.00;;;;;;4970682;28;20473;-45
2023/11/19 03:20:50;;;;;;;1.50;0.90;;;9.60;98.80;;;;;;4946404;28;20836;-44
2023/11/19 03:23:18;;;;;;;1.23;0.50;;;9.60;99.00;;;;;;4969912;28;20442;-46
2023/11/19 03:25:46;;;;;;;1.53;0.80;;;9.60;98.80;;;;;;4963980;28;20880;-46
2023/11/19 03:28:14;;;;;;;1.37;0.60;;;9.60;98.90;;;;;;4968601;28;20439;-47
2023/11/19 03:30:43;;;;;;;2.70;0.70;;;9.60;98.80;;;;;;4957482;28;20922;-47
2023/11/19 03:33:12;;;;;;;1.40;0.70;;;9.60;98.90;;;;;;4955609;28;20447;-45
2023/11/19 03:35:41;;;;;;;1.87;0.80;;;9.60;98.70;;;;;;4961174;28;20438;-45
2023/11/19 03:38:09;;;;;;;0.90;0.40;;;9.60;99.00;;;;;;4972651;28;20530;-44
2023/11/19 03:40:38;;;;;;;3.87;0.80;;;9.60;98.80;;;;;;4959158;28;20487;-46
2023/11/19 03:43:07;;;;;;;1.27;0.50;;;9.60;98.90;;;;;;4966938;28;20434;-46
2023/11/19 03:45:36;;;;;;;1.90;0.70;;;9.60;98.80;;;;;;4966052;28;20551;-46
2023/11/19 03:48:04;;;;;;;1.10;0.50;;;9.60;98.80;;;;;;4970323;28;20468;-45
2023/11/19 03:50:34;;;;;;;1.80;0.93;;;9.60;98.80;;;;;;4967107;28;21058;-45
2023/11/19 03:53:03;;;;;;;2.50;0.73;;;9.60;98.90;;;;;;4963689;28;20438;-45
2023/11/19 03:55:32;;;;;;;1.70;0.70;;;9.60;98.80;;;;;;4950302;28;20865;-44
2023/11/19 03:58:00;;;;;;;1.10;0.50;;;9.60;98.90;;;;;;4963471;28;20525;-44
2023/11/19 04:00:32;;;;;;;5.47;1.00;;;9.60;99.50;;;;;;4957828;28;20427;-44
2023/11/19 04:03:04;;;;;;;1.70;0.67;;;9.60;98.90;;;;;;4969431;28;20445;-44
2023/11/19 04:05:34;;;;;;;2.40;0.87;;;9.60;99.00;;;;;;4954642;28;20532;-44
2023/11/19 04:08:02;;;;;;;2.27;0.90;;;9.60;98.90;;;;;;4948212;28;20481;-48
2023/11/19 04:10:30;;;;;;;2.33;0.73;;;9.70;98.70;;;;;;4948048;28;20478;-44
2023/11/19 04:12:58;;;;;;;3.30;1.10;;;9.60;98.80;;;;;;4952516;28;20983;-45
2023/11/19 04:15:26;;;;;;;1.40;0.70;;;9.70;98.90;;;;;;4943695;28;20440;-44
2023/11/19 04:17:56;;;;;;;2.70;0.60;;;9.70;98.80;;;;;;4967222;28;20515;-45
2023/11/19 04:20:25;;;;;;;2.97;0.93;;;9.70;99.20;;;;;;4968486;28;20481;-45
2023/11/19 04:22:57;;;;;;;1.97;0.70;;;9.70;98.80;;;;;;4970971;28;20470;-44
2023/11/19 04:25:26;;;;;;;1.83;0.87;;;9.60;98.80;;;;;;4952951;28;20478;-46
2023/11/19 04:27:56;;;;;;;1.63;0.87;;;9.70;98.80;;;;;;4970888;28;20470;-44
2023/11/19 04:30:24;;;;;;;1.73;0.90;;;9.70;98.80;;;;;;4963258;28;20437;-45
2023/11/19 04:32:52;;;;;;;4.60;0.90;;;9.60;98.70;;;;;;4955054;28;20456;-44
2023/11/19 04:35:21;;;;;;;2.60;0.70;;;9.70;98.80;;;;;;4960676;28;20526;-44
2023/11/19 04:37:49;;;;;;;1.87;0.60;;;9.70;98.80;;;;;;4961207;28;20502;-43
2023/11/19 04:40:19;;;;;;;2.03;0.87;;;9.70;99.00;;;;;;4966588;28;20455;-44
2023/11/19 04:42:47;;;;;;;1.50;0.73;;;9.70;98.90;;;;;;4962015;28;20469;-44
2023/11/19 04:45:16;;;;;;;4.20;1.47;;;9.70;98.90;;;;;;4957696;28;20461;-44
2023/11/19 04:47:44;;;;;;;2.07;0.80;;;9.70;98.90;;;;;;4969756;28;20887;-46
2023/11/19 04:50:12;;;;;;;1.87;0.87;;;9.70;98.90;;;;;;4961550;28;20450;-44
2023/11/19 04:52:42;;;;;;;2.37;0.83;;;9.70;98.90;;;;;;4961543;28;20517;-44
2023/11/19 04:55:12;;;;;;;1.73;1.37;;;9.70;99.00;;;;;;4968935;28;20536;-45
2023/11/19 04:57:42;;;;;;;2.37;0.90;;;9.70;98.90;;;;;;4972129;28;20482;-45
2023/11/19 05:00:12;;;;;;;5.37;1.00;;;9.70;98.90;;;;;;4969095;28;20424;-45
2023/11/19 05:02:43;;;;;;;2.07;0.83;;;9.70;98.90;;;;;;4964411;28;20531;-44
2023/11/19 05:05:11;;;;;;;1.77;1.00;;;9.70;98.80;;;;;;4965516;28;20805;-44
2023/11/19 05:07:40;;;;;;;2.60;1.23;;;9.70;98.90;;;;;;4957758;28;20703;-44
2023/11/19 05:10:09;;;;;;;1.70;0.80;;;9.70;99.00;;;;;;4956584;28;20447;-44
2023/11/19 05:12:39;;;;;;;1.70;0.77;;;9.70;99.10;;;;;;4971847;28;20467;-43
2023/11/19 05:15:09;;;;;;;2.20;0.80;;;9.70;99.00;;;;;;4951878;28;20806;-44
2023/11/19 05:17:37;;;;;;;2.93;1.03;;;9.70;98.90;;;;;;4953929;28;20847;-44
2023/11/19 05:20:12;;;;;;;3.13;1.10;;;9.70;98.90;;;;;;4962642;28;20453;-44
2023/11/19 05:22:41;;;;;;;3.27;1.30;;;9.70;98.90;;;;;;4968473;28;20473;-45
2023/11/19 05:25:10;;;;;;;3.10;1.17;;;9.70;98.80;;;;;;4964147;28;20453;-45
2023/11/19 05:27:38;;;;;;;2.70;0.90;;;9.70;98.70;;;;;;4971285;28;20844;-46
2023/11/19 05:30:10;;;;;;;4.00;1.53;;;9.70;98.70;;;;;;4967758;28;20440;-45
2023/11/19 05:32:38;;;;;;;2.50;1.00;;;9.70;98.80;;;;;;4968251;28;20471;-44
2023/11/19 05:35:10;;;;;;;2.50;0.97;;;9.70;98.90;;;;;;4966270;28;20455;-45
2023/11/19 05:37:38;;;;;;;3.67;1.20;;;9.70;98.80;;;;;;4964247;28;21008;-43
2023/11/19 05:40:14;;;;;;;3.57;1.20;;;9.70;98.70;;;;;;4957810;28;20945;-45
2023/11/19 05:42:43;;;;;;;3.13;1.07;;;9.70;98.70;;;;;;4951210;28;20491;-47
2023/11/19 05:45:15;;;;;;;4.27;1.20;;;9.70;98.80;;;;;;4955631;28;20431;-46
2023/11/19 05:47:43;;;;;;;1.87;1.00;;;9.70;98.80;;;;;;4954441;28;20554;-45
2023/11/19 05:50:12;;;;;;;2.03;1.20;;;9.80;98.90;;;;;;4956998;28;20459;-44
2023/11/19 05:52:40;;;;;;;6.70;1.43;;;9.70;98.70;;;;;;4960498;28;20468;-43
2023/11/19 05:55:10;;;;;;;6.03;1.20;;;9.70;98.60;;;;;;4962625;28;20467;-45
2023/11/19 05:57:39;;;;;;;4.53;1.50;;;9.80;98.60;;;;;;4963788;28;20489;-48
2023/11/19 06:00:12;;;;;;;4.00;1.20;;;9.70;98.60;;;;;;4950572;28;20430;-43
2023/11/19 06:02:42;;;;;;;2.20;1.13;;;9.80;98.60;;;;;;4960510;28;20483;-44
2023/11/19 06:05:10;;;;;;;3.40;0.97;;;9.80;98.60;;;;;;4961173;28;20812;-44
2023/11/19 06:07:39;;;;;;;1.80;1.10;;;9.70;98.60;;;;;;4967558;28;20530;-44
2023/11/19 06:10:09;;;;;;;2.20;1.50;;;9.80;98.70;;;;;;4958748;28;20826;-46
2023/11/19 06:12:40;;;;;;;3.53;1.23;;;9.70;98.60;;;;;;4963445;28;20490;-47
2023/11/19 06:15:09;;;;;;;4.23;0.90;;;9.80;98.60;;;;;;4971428;28;20443;-45
2023/11/19 06:17:38;;;;;;;1.60;1.00;;;9.80;98.60;;;;;;4963909;28;20502;-46
2023/11/19 06:20:11;;;;;;;2.40;1.20;;;9.80;98.60;;;;;;4957252;28;20538;-45
2023/11/19 06:22:39;;;;;;;4.20;1.37;;;9.80;98.70;;;;;;4970443;28;20548;-46
2023/11/19 06:25:08;;;;;;;5.40;1.37;;;9.80;98.60;;;;;;4965129;28;20455;-50
2023/11/19 06:27:36;;;;;;;2.37;1.20;;;9.80;98.60;;;;;;4966534;28;20470;-45
2023/11/19 06:30:05;;;;;;;3.23;1.10;;;9.70;98.60;;;;;;4968893;28;20442;-45
2023/11/19 06:32:33;;;;;;;4.60;1.80;;;9.70;98.60;;;;;;4964526;28;20471;-46
2023/11/19 06:35:04;;;;;;;2.50;1.00;;;9.70;98.60;;;;;;4967024;28;21000;-45
2023/11/19 06:37:35;;;;;;;5.00;1.50;;;9.80;98.60;;;;;;4963511;28;21025;-46
2023/11/19 06:40:04;;;;;;;2.30;1.30;;;9.80;98.60;;;;;;4963127;28;20478;-46
2023/11/19 06:42:33;;;;;;;4.50;1.53;;;9.80;98.60;;;;;;4965638;28;21017;-46
2023/11/19 06:45:01;;;;;;;3.47;1.43;;;9.80;98.60;;;;;;4965879;28;20941;-44
2023/11/19 06:47:29;;;;;;;5.20;1.40;;;9.80;98.60;;;;;;4962432;28;20553;-45
2023/11/19 06:49:57;;;;;;;6.40;1.53;;;9.80;98.60;;;;;;4968998;28;20963;-44
2023/11/19 06:52:25;;;;;;;2.37;1.83;;;9.80;98.60;;;;;;4960152;28;20464;-48
2023/11/19 06:54:54;;;;;;;2.80;1.43;;;9.80;98.60;;;;;;4961188;28;20803;-44
2023/11/19 06:57:35;;;;;;;3.67;0.90;;;9.80;98.60;;;;;;4958073;28;20464;-45
2023/11/19 07:00:08;;;;;;;3.37;1.57;;;9.80;98.60;;;;;;4962159;28;20545;-45
2023/11/19 07:02:36;;;;;;;3.80;1.67;;;9.80;98.60;;;;;;4943674;28;20984;-46
2023/11/19 07:05:09;;;;;;;2.03;0.90;;;9.80;98.60;;;;;;4959184;28;20836;-44
2023/11/19 07:07:40;;;;;;;3.00;0.97;;;9.80;98.60;;;;;;4953738;28;20997;-44
2023/11/19 07:10:09;;;;;;;12.07;1.50;;;9.80;98.60;;;;;;4962386;28;21035;-45
2023/11/19 07:12:38;;;;;;;7.87;1.63;;;9.80;98.60;;;;;;4959809;28;20507;-46
2023/11/19 07:15:08;;;;;;;4.80;1.20;;;9.80;98.60;;;;;;4962612;28;20462;-46
2023/11/19 07:17:36;;;;;;;3.40;1.20;;;9.80;99.10;;;;;;4965129;28;20475;-45
2023/11/19 07:20:06;;;;;;;3.93;1.00;;;9.80;98.60;;;;;;4958838;28;20537;-45
2023/11/19 07:22:34;;;;;;;1.83;1.10;;;9.80;98.60;;;;;;4957562;28;20471;-44
2023/11/19 07:25:05;;;;;;;3.87;2.00;;;9.80;98.60;;;;;;4956954;28;20584;-46
2023/11/19 07:27:38;;;;;;;5.93;1.47;;;9.80;98.60;;;;;;4965768;28;20467;-45
2023/11/19 07:30:07;;;;;;;6.13;1.57;;;9.80;98.60;;;;;;4961513;28;20711;-44
2023/11/19 07:32:35;;;;;;;4.53;1.20;;;9.80;98.60;;;;;;4962438;28;20480;-48
2023/11/19 07:35:04;;;;;;;4.87;1.80;;;9.80;98.60;;;;;;4957956;28;20480;-49
2023/11/19 07:37:32;;;;;;;3.60;1.73;;;9.80;98.60;;;;;;4963501;28;20483;-46
2023/11/19 07:40:00;;;;;;;5.30;1.47;;;9.80;98.60;;;;;;4966758;28;20553;-44
2023/11/19 07:42:28;;;;;;;7.03;1.57;;;9.80;98.60;;;;;;4963286;28;20459;-45
2023/11/19 07:44:58;;;;;;;4.53;1.27;;;9.80;98.60;;;;;;4959969;28;20433;-48
2023/11/19 07:47:26;;;;;;;3.33;1.40;;;9.80;98.60;;;;;;4964696;28;20531;-44
2023/11/19 07:49:54;;;;;;;2.90;1.60;;;9.80;98.60;;;;;;4944958;28;20892;-47
2023/11/19 07:52:24;;;;;;;3.10;1.90;;;9.80;98.60;;;;;;4965904;28;20460;-47
2023/11/19 07:54:52;;;;;;;4.80;1.17;;;9.90;98.70;;;;;;4961283;28;20950;-46
2023/11/19 07:57:20;;;;;;;4.03;1.53;;;9.80;98.60;;;;;;4963752;28;20486;-44
2023/11/19 07:59:49;;;;;;;5.70;1.60;;;9.80;98.60;;;;;;4963002;28;20474;-48
2023/11/19 08:02:18;;;;;;;6.30;1.43;;;9.90;98.70;;;;;;4966355;28;20485;-47
2023/11/19 08:04:49;;;;;;;6.03;1.63;;;9.90;98.70;;;;;;4962154;28;20451;-45
2023/11/19 08:07:18;;;;;;;4.80;1.20;;;9.90;98.70;;;;;;4956624;28;20478;-47
2023/11/19 08:09:47;;;;;;;4.80;1.67;;;9.90;98.70;;;;;;4954792;28;21017;-45
2023/11/19 08:12:15;;;;;;;2.93;1.37;;;9.90;98.70;;;;;;4956928;28;20526;-44
2023/11/19 08:14:44;;;;;;;3.70;1.60;;;9.90;98.70;;;;;;4960510;28;20440;-48
2023/11/19 08:17:12;;;;;;;5.03;1.43;;;9.90;98.70;;;;;;4955340;28;20553;-45
2023/11/19 08:19:42;;;;;;;6.43;1.77;;;9.90;98.70;;;;;;4969473;28;20472;-45
2023/11/19 08:22:10;;;;;;;6.73;1.90;;;9.90;98.70;;;;;;4972004;28;20517;-45
2023/11/19 08:24:38;;;;;;;3.40;1.47;;;9.90;98.60;;;;;;4965942;28;20489;-45
2023/11/19 08:27:06;;;;;;;3.87;1.50;;;9.90;98.50;;;;;;4955360;28;20533;-44
2023/11/19 08:29:34;;;;;;;4.60;1.37;;;9.90;98.50;;;;;;4967361;28;20510;-46
2023/11/19 08:32:03;;;;;;;3.60;1.73;;;9.90;98.40;;;;;;4957269;28;21087;-46
2023/11/19 08:34:31;;;;;;;3.70;1.40;;;9.90;98.10;;;;;;4966659;28;20617;-45
2023/11/19 08:37:01;;;;;;;4.37;1.20;;;9.90;98.30;;;;;;4963693;28;21062;-47
2023/11/19 08:39:30;;;;;;;4.30;1.60;;;10.00;97.50;;;;;;4965453;28;20498;-47
2023/11/19 08:41:58;;;;;;;10.17;2.40;;;10.00;97.60;;;;;;4970768;28;21052;-44
2023/11/19 08:44:27;;;;;;;11.93;1.57;;;10.00;97.50;;;;;;4967798;28;20447;-45
2023/11/19 08:46:55;;;;;;;3.20;1.03;;;10.00;97.50;;;;;;4964286;28;20471;-44
2023/11/19 08:49:23;;;;;;;5.33;1.80;;;10.00;97.30;;;;;;4970849;28;20541;-48
2023/11/19 08:51:51;;;;;;;6.63;1.33;;;10.00;97.50;;;;;;4961497;28;20886;-43
2023/11/19 08:54:22;;;;;;;4.50;1.50;;;10.10;97.60;;;;;;4948296;28;20943;-48
2023/11/19 08:56:50;;;;;;;4.37;1.50;;;10.10;97.50;;;;;;4970089;28;20525;-45
2023/11/19 08:59:18;;;;;;;3.90;1.50;;;10.10;97.40;;;;;;4972707;28;20467;-44
2023/11/19 09:01:47;;;;;;;4.63;1.53;;;10.10;97.30;;;;;;4967339;28;20557;-45
2023/11/19 09:04:15;;;;;;;4.47;1.87;;;10.10;97.30;;;;;;4956625;28;20474;-44
2023/11/19 09:06:46;;;;;;;5.03;1.77;;;10.10;97.30;;;;;;4969323;28;20885;-46
2023/11/19 09:09:14;;;;;;;5.93;1.87;;;10.10;97.30;;;;;;4955947;28;20809;-47
2023/11/19 09:11:44;;;;;;;3.07;1.70;;;10.10;97.20;;;;;;4964719;28;20474;-45
2023/11/19 09:14:12;;;;;;;6.00;2.60;;;10.20;97.60;;;;;;4965365;28;20897;-48
2023/11/19 09:16:40;;;;;;;4.47;1.80;;;10.20;97.30;;;;;;4963507;28;20723;-46
2023/11/19 09:19:08;;;;;;;4.97;1.60;;;10.20;97.30;;;;;;4962033;28;20442;-47
2023/11/19 09:21:38;;;;;;;6.93;1.87;;;10.20;97.20;;;;;;4956002;28;20467;-45
2023/11/19 09:24:07;;;;;;;6.80;2.23;;;10.30;97.30;;;;;;4964588;28;20514;-47
2023/11/19 09:26:41;;;;;;;5.27;1.87;;;10.30;97.20;;;;;;4960028;28;20553;-47
2023/11/19 09:29:10;;;;;;;5.70;2.23;;;10.20;97.10;;;;;;4966903;28;20465;-47
2023/11/19 09:31:39;;;;;;;6.67;2.37;;;10.20;97.20;;;;;;4965565;28;20474;-46
2023/11/19 09:34:07;;;;;;;8.90;1.77;;;10.20;97.20;;;;;;4955550;28;20451;-45
2023/11/19 09:36:36;;;;;;;5.27;2.10;;;10.20;97.20;;;;;;4958971;28;20464;-47
2023/11/19 09:39:05;;;;;;;6.73;1.90;;;10.20;97.10;;;;;;4965279;28;20450;-46
2023/11/19 09:41:34;;;;;;;5.20;1.80;;;10.20;97.10;;;;;;4964788;28;20479;-45
2023/11/19 09:44:03;;;;;;;5.10;2.17;;;10.20;97.10;;;;;;4958335;28;20438;-47
2023/11/19 09:46:34;;;;;;;7.50;2.30;;;10.30;97.20;;;;;;4964871;28;20525;-46
2023/11/19 09:49:09;;;;;;;4.40;1.50;;;10.20;97.30;;;;;;4960755;28;20550;-45
2023/11/19 09:51:37;;;;;;;7.97;2.20;;;10.20;97.00;;;;;;4965486;28;20549;-46
2023/11/19 09:54:06;;;;;;;3.50;1.47;;;10.30;97.20;;;;;;4955999;28;20848;-45
2023/11/19 09:56:36;;;;;;;4.20;1.50;;;10.20;97.10;;;;;;4954482;28;20456;-45
2023/11/19 09:59:05;;;;;;;6.00;2.00;;;10.20;97.20;;;;;;4970019;28;20442;-45
2023/11/19 10:01:37;;;;;;;4.40;2.10;;;10.30;97.00;;;;;;4964533;28;20538;-46
2023/11/19 10:04:08;;;;;;;4.10;1.80;;;10.30;96.90;;;;;;4966486;28;20443;-47
2023/11/19 10:06:36;;;;;;;4.97;1.77;;;10.20;97.20;;;;;;4968605;28;20821;-44
2023/11/19 10:09:05;;;;;;;5.70;1.60;;;10.30;97.20;;;;;;4964373;28;20443;-44
2023/11/19 10:11:33;;;;;;;6.67;2.03;;;10.30;96.90;;;;;;4965022;28;20491;-47
2023/11/19 10:14:01;;;;;;;8.70;2.57;;;10.30;96.90;;;;;;4962612;28;20865;-46
2023/11/19 10:16:31;;;;;;;5.57;2.07;;;10.20;97.10;;;;;;4968655;28;20479;-45
2023/11/19 10:19:00;;;;;;;5.87;2.67;;;10.30;97.40;;;;;;4964636;28;20513;-45
2023/11/19 10:21:31;;;;;;;7.10;2.10;;;10.40;98.70;;;;;;4962228;28;20487;-44
2023/11/19 10:24:00;;;;;;;9.20;2.30;;;10.40;98.40;;;;;;4967689;28;20927;-44
2023/11/19 10:26:29;;;;;;;10.00;2.17;;;10.40;98.00;;;;;;4961316;28;20476;-44
2023/11/19 10:28:57;;;;;;;4.97;2.00;;;10.40;98.00;;;;;;4960800;28;20511;-47
2023/11/19 10:31:26;;;;;;;5.23;2.40;;;10.30;98.00;;;;;;4958278;28;20470;-45
2023/11/19 10:33:55;;;;;;;5.97;2.10;;;10.40;98.00;;;;;;4964968;28;20454;-47
2023/11/19 10:36:39;;;;;;;8.70;3.17;;;10.40;98.40;;;;;;4963345;28;20715;-46
2023/11/19 10:39:09;;;;;;;5.30;1.83;;;10.30;97.50;;;;;;4952200;28;20430;-44
2023/11/19 10:41:37;;;;;;;9.97;3.00;;;10.40;97.90;;;;;;4952995;28;20468;-46
2023/11/19 10:44:10;;;;;;;7.57;2.17;;;10.40;97.70;;;;;;4969088;28;20467;-45
2023/11/19 10:46:39;;;;;;;6.40;2.40;;;10.40;97.60;;;;;;4957644;28;20464;-44
2023/11/19 10:49:09;;;;;;;3.53;1.50;;;10.40;97.80;;;;;;4964660;28;20931;-48
2023/11/19 10:51:44;;;;;;;5.77;1.93;;;10.40;97.60;;;;;;4969676;28;20462;-44
2023/11/19 10:54:16;;;;;;;5.93;2.30;;;10.40;97.70;;;;;;4953454;28;20435;-45
2023/11/19 10:56:48;;;;;;;4.47;2.00;;;10.30;97.40;;;;;;4960905;28;20470;-45
2023/11/19 10:59:17;;;;;;;7.00;2.27;;;10.30;97.50;;;;;;4965125;28;20443;-47
2023/11/19 11:01:54;;;;;;;6.33;2.17;;;10.30;97.40;;;;;;4968970;28;20506;-45
2023/11/19 11:04:25;;;;;;;9.10;2.47;;;10.30;97.40;;;;;;4947423;28;20474;-47
2023/11/19 11:06:58;;;;;;;10.27;2.30;;;10.30;97.60;;;;;;4961055;28;20489;-45
2023/11/19 11:09:27;;;;;;;7.40;2.20;;;10.40;97.50;;;;;;4965493;28;20424;-48
2023/11/19 11:12:00;;;;;;;6.00;1.77;;;10.30;97.50;;;;;;4968503;28;20462;-46
2023/11/19 11:14:28;;;;;;;4.80;1.67;;;10.30;97.40;;;;;;4948750;28;20430;-48
2023/11/19 11:16:58;;;;;;;8.10;2.03;;;10.30;97.50;;;;;;4962940;28;20705;-48
2023/11/19 11:19:27;;;;;;;3.87;1.83;;;10.30;97.40;;;;;;4959843;28;20443;-46
2023/11/19 11:21:58;;;;;;;9.07;2.57;;;10.30;97.50;;;;;;4962300;28;20672;-46
2023/11/19 11:24:51;;;;;;;7.53;2.00;;;10.30;97.60;;;;;;4963744;28;20434;-44
2023/11/19 11:27:40;;;;;;;7.53;2.40;;;10.30;97.50;;;;;;4957423;28;20562;-45
2023/11/19 11:30:24;;;;;;;7.00;2.03;;;10.40;97.60;;;;;;4953680;28;20438;-46
2023/11/19 11:33:00;;;;;;;5.50;1.80;;;10.40;97.70;;;;;;4959951;28;20827;-48
2023/11/19 11:35:37;;;;;;;7.43;2.10;;;10.40;97.50;;;;;;4954190;28;20854;-46
2023/11/19 11:38:08;;;;;;;4.43;1.67;;;10.40;97.60;;;;;;4953085;28;20473;-45
2023/11/19 11:40:40;;;;;;;8.30;1.93;;;10.40;97.60;;;;;;4958607;28;20446;-45
2023/11/19 11:43:49;;;;;;;4.27;1.47;;;10.30;97.60;;;;;;4965878;28;20461;-46
2023/11/19 11:46:54;;;;;;;3.40;1.40;;;10.40;97.90;;;;;;4951570;28;20457;-45
2023/11/19 11:49:31;;;;;;;5.10;1.60;;;10.40;97.80;;;;;;4958598;28;20498;-45
2023/11/19 11:52:00;;;;;;;5.47;2.00;;;10.40;97.80;;;;;;4971759;28;20466;-47
2023/11/19 11:54:32;;;;;;;3.70;1.80;;;10.40;97.80;;;;;;4966588;28;20448;-44
2023/11/19 11:57:04;;;;;;;4.60;1.90;;;10.40;98.40;;;;;;4971785;28;20470;-45
2023/11/19 11:59:46;;;;;;;5.97;1.63;;;10.40;97.90;;;;;;4974055;28;20441;-46
2023/11/19 12:02:17;;;;;;;6.70;2.23;;;10.40;97.80;;;;;;4955172;28;20486;-44
2023/11/19 12:04:49;;;;;;;1.77;1.30;;;10.40;97.90;;;;;;4962305;28;21066;-49
2023/11/19 12:07:19;;;;;;;3.77;1.77;;;10.40;97.70;;;;;;4955317;28;21022;-44
2023/11/19 12:09:55;;;;;;;5.53;2.00;;;10.40;98.00;;;;;;4965050;28;20471;-45
2023/11/19 12:12:29;;;;;;;5.07;1.63;;;10.40;97.80;;;;;;4962659;28;20460;-45
2023/11/19 12:15:09;;;;;;;5.73;1.93;;;10.40;97.90;;;;;;4973393;28;20743;-46
2023/11/19 12:17:49;;;;;;;4.90;1.23;;;10.40;97.90;;;;;;4966736;28;21085;-45
2023/11/19 12:20:18;;;;;;;8.40;2.03;;;10.40;97.90;;;;;;4960257;28;20443;-45
2023/11/19 12:23:09;;;;;;;4.10;1.63;;;10.40;98.10;;;;;;4970917;28;20486;-45
2023/11/19 12:25:39;;;;;;;4.53;1.70;;;10.40;98.10;;;;;;4963522;28;20451;-47
2023/11/19 12:28:12;;;;;;;4.27;1.50;;;10.40;98.20;;;;;;4966298;28;20448;-46
2023/11/19 12:30:41;;;;;;;3.10;1.37;;;10.40;97.80;;;;;;4970380;28;20447;-44
2023/11/19 12:33:10;;;;;;;7.63;1.70;;;10.40;98.00;;;;;;4966997;28;20425;-46
2023/11/19 12:35:40;;;;;;;4.00;1.33;;;10.40;98.00;;;;;;4959083;28;20448;-44
2023/11/19 12:38:09;;;;;;;3.50;2.07;;;10.40;98.10;;;;;;4961220;28;20459;-46
2023/11/19 12:40:38;;;;;;;2.50;1.37;;;10.50;98.00;;;;;;4962235;28;20477;-44
2023/11/19 12:43:06;;;;;;;7.23;2.27;;;10.50;97.90;;;;;;4968644;28;20529;-45
2023/11/19 12:45:38;;;;;;;4.73;1.60;;;10.40;98.40;;;;;;4969756;28;20449;-45
2023/11/19 12:48:07;;;;;;;4.30;1.73;;;10.50;98.10;;;;;;4963242;28;22565;-44
2023/11/19 12:50:57;;;;;;;5.67;2.33;;;10.50;98.00;;;;;;4963498;28;20665;-47
2023/11/19 12:53:27;;;;;;;4.57;1.50;;;10.50;98.10;;;;;;4966582;28;20444;-45
2023/11/19 12:55:57;;;;;;;7.90;2.10;;;10.50;98.00;;;;;;4965381;28;20447;-46
2023/11/19 12:58:32;;;;;;;6.57;1.80;;;10.50;98.00;;;;;;4951274;28;20451;-44
2023/11/19 13:01:01;;;;;;;8.90;1.90;;;10.50;98.10;;;;;;4965376;28;20454;-46
2023/11/19 13:03:33;;;;;;;4.03;1.90;;;10.50;98.00;;;;;;4959926;28;20915;-44
2023/11/19 13:06:07;;;;;;;4.77;2.57;;;10.50;98.00;;;;;;4971713;28;20462;-44
2023/11/19 13:08:40;;;;;;;10.93;3.00;;;10.50;98.20;;;;;;4967182;28;20504;-46